createdAt,value
2018-12-19T00:01:20.472Z,49.20
2018-12-19T00:03:51.931Z,49.10
2018-12-19T00:06:22.763Z,48.80
2018-12-19T00:08:53.879Z,49.00
2018-12-19T00:11:24.654Z,48.90
2018-12-19T00:13:55.383Z,48.90
2018-12-19T00:16:26.143Z,48.60
2018-12-19T00:18:56.967Z,48.80
2018-12-19T00:21:27.991Z,48.70
2018-12-19T00:23:58.903Z,48.70
2018-12-19T00:26:30.188Z,48.90
2018-12-19T00:29:01.476Z,48.70
2018-12-19T00:31:33.701Z,48.50
2018-12-19T00:34:05.019Z,48.60
2018-12-19T00:36:35.737Z,48.30
2018-12-19T00:39:09.621Z,48.50
2018-12-19T00:41:40.910Z,48.50
2018-12-19T00:44:11.638Z,48.50
2018-12-19T00:46:42.484Z,48.90
2018-12-19T00:49:13.355Z,48.30
2018-12-19T00:51:44.132Z,48.30
2018-12-19T00:54:14.816Z,48.40
2018-12-19T00:56:45.573Z,48.60
2018-12-19T00:59:16.390Z,48.50
2018-12-19T01:01:47.242Z,48.40
2018-12-19T01:04:17.903Z,48.50
2018-12-19T01:06:48.732Z,48.40
2018-12-19T01:09:19.490Z,48.40
2018-12-19T01:11:50.143Z,48.50
2018-12-19T01:14:21.007Z,48.30
2018-12-19T01:16:51.802Z,48.40
2018-12-19T01:19:22.663Z,48.50
2018-12-19T01:21:54.747Z,48.40
2018-12-19T01:24:25.622Z,48.20
2018-12-19T01:26:56.594Z,48.50
2018-12-19T01:29:27.328Z,48.40
2018-12-19T01:31:58.210Z,48.30
2018-12-19T01:34:28.922Z,48.40
2018-12-19T01:37:00.884Z,48.50
2018-12-19T01:39:31.656Z,48.60
2018-12-19T01:42:02.832Z,48.60
2018-12-19T01:44:33.602Z,48.50
2018-12-19T01:47:04.767Z,48.80
2018-12-19T01:49:35.662Z,49.00
2018-12-19T01:52:06.564Z,49.00
2018-12-19T01:54:37.244Z,49.10
2018-12-19T01:57:08.198Z,49.10
2018-12-19T01:59:40.399Z,49.10
2018-12-19T02:02:11.653Z,49.10
2018-12-19T02:04:42.732Z,49.10
2018-12-19T02:07:13.782Z,49.10
2018-12-19T02:09:44.674Z,49.20
2018-12-19T02:12:15.894Z,49.20
2018-12-19T02:14:46.960Z,49.30
2018-12-19T02:17:17.752Z,49.40
2018-12-19T02:19:48.597Z,49.20
2018-12-19T02:22:19.260Z,49.40
2018-12-19T02:24:50.036Z,49.40
2018-12-19T02:27:21.129Z,49.40
2018-12-19T02:29:52.273Z,49.20
2018-12-19T02:32:22.915Z,49.30
2018-12-19T02:34:53.832Z,49.10
2018-12-19T02:37:24.764Z,49.20
2018-12-19T02:39:55.418Z,49.40
2018-12-19T02:42:26.119Z,49.50
2018-12-19T02:44:56.750Z,49.60
2018-12-19T02:47:27.940Z,49.60
2018-12-19T02:49:58.977Z,49.70
2018-12-19T02:52:29.796Z,49.90
2018-12-19T02:55:01.466Z,49.90
2018-12-19T02:57:32.446Z,49.90
2018-12-19T03:00:03.165Z,50.00
2018-12-19T03:02:33.887Z,50.00
2018-12-19T03:05:06.206Z,50.20
2018-12-19T03:07:36.911Z,50.30
2018-12-19T03:10:08.454Z,50.50
2018-12-19T03:12:39.299Z,50.70
2018-12-19T03:15:10.292Z,50.30
2018-12-19T03:17:40.950Z,50.70
2018-12-19T03:20:12.579Z,50.70
2018-12-19T03:22:43.833Z,51.00
2018-12-19T03:25:15.370Z,50.90
2018-12-19T03:27:46.443Z,51.10
2018-12-19T03:30:17.167Z,51.00
2018-12-19T03:32:48.079Z,51.10
2018-12-19T03:35:19.191Z,51.10
2018-12-19T03:37:49.882Z,51.20
2018-12-19T03:40:20.547Z,51.30
2018-12-19T03:42:51.315Z,51.40
2018-12-19T03:45:22.217Z,51.60
2018-12-19T03:47:53.062Z,51.50
2018-12-19T03:50:23.774Z,51.70
2018-12-19T03:52:54.744Z,51.70
2018-12-19T03:55:25.769Z,52.10
2018-12-19T03:57:56.847Z,51.80
2018-12-19T04:00:27.914Z,51.90
2018-12-19T04:02:58.736Z,51.90
2018-12-19T04:05:29.547Z,52.00
2018-12-19T04:08:00.556Z,52.30
2018-12-19T04:10:31.299Z,51.90
2018-12-19T04:13:02.149Z,51.90
2018-12-19T04:15:33.526Z,52.00
2018-12-19T04:18:04.514Z,51.90
2018-12-19T04:20:35.356Z,52.00
2018-12-19T04:23:06.319Z,52.20
2018-12-19T04:25:36.976Z,52.00
2018-12-19T04:28:07.652Z,52.10
2018-12-19T04:30:40.583Z,52.20
2018-12-19T04:33:11.262Z,52.20
2018-12-19T04:35:42.409Z,52.80
2018-12-19T04:38:13.642Z,52.30
2018-12-19T04:40:44.519Z,52.30
2018-12-19T04:43:15.161Z,52.40
2018-12-19T04:45:45.779Z,52.40
2018-12-19T04:48:16.949Z,53.20
2018-12-19T04:50:47.677Z,52.60
2018-12-19T04:53:18.437Z,52.80
2018-12-19T04:55:49.095Z,52.70
2018-12-19T04:58:19.792Z,52.60
2018-12-19T05:00:50.921Z,52.70
2018-12-19T05:03:21.943Z,52.80
2018-12-19T05:05:53.178Z,52.80
2018-12-19T05:08:23.837Z,52.90
2018-12-19T05:10:54.584Z,53.00
2018-12-19T05:13:25.301Z,52.90
2018-12-19T05:15:56.289Z,53.00
2018-12-19T05:18:27.031Z,53.10
2018-12-19T05:20:57.911Z,53.10
2018-12-19T05:23:28.739Z,53.00
2018-12-19T05:25:59.475Z,53.50
2018-12-19T05:28:30.523Z,53.30
2018-12-19T05:31:01.598Z,53.20
2018-12-19T05:33:33.543Z,53.20
2018-12-19T05:36:04.248Z,53.50
2018-12-19T05:38:35.387Z,53.60
2018-12-19T05:41:06.127Z,53.50
2018-12-19T05:43:38.095Z,53.70
2018-12-19T05:46:08.790Z,53.80
2018-12-19T05:48:39.596Z,53.80
2018-12-19T05:51:10.775Z,53.90
2018-12-19T05:53:41.485Z,54.10
2018-12-19T05:56:12.232Z,54.10
2018-12-19T05:58:42.909Z,54.20
2018-12-19T06:01:13.579Z,54.20
2018-12-19T06:03:44.698Z,54.40
2018-12-19T06:06:15.387Z,54.50
2018-12-19T06:08:46.208Z,54.30
2018-12-19T06:11:16.900Z,54.50
2018-12-19T06:13:47.587Z,54.70
2018-12-19T06:16:18.288Z,54.70
2018-12-19T06:18:49.014Z,54.80
2018-12-19T06:21:19.851Z,55.00
2018-12-19T06:23:50.876Z,55.20
2018-12-19T06:26:22.315Z,55.40
2018-12-19T06:28:53.094Z,55.40
2018-12-19T06:31:23.846Z,55.60
2018-12-19T06:33:56.298Z,55.80
2018-12-19T06:36:27.579Z,55.80
2018-12-19T06:38:58.726Z,56.00
2018-12-19T06:41:29.499Z,56.00
2018-12-19T06:44:01.649Z,56.20
2018-12-19T06:46:32.783Z,56.20
2018-12-19T06:49:03.916Z,56.40
2018-12-19T06:51:34.652Z,56.50
2018-12-19T06:54:05.890Z,56.50
2018-12-19T06:56:36.941Z,56.50
2018-12-19T06:59:07.874Z,56.70
2018-12-19T07:01:39.943Z,56.60
2018-12-19T07:04:10.636Z,56.90
2018-12-19T07:06:41.351Z,57.10
2018-12-19T07:09:12.567Z,57.10
2018-12-19T07:11:44.529Z,57.30
2018-12-19T07:14:15.310Z,57.40
2018-12-19T07:16:45.971Z,57.40
2018-12-19T07:19:16.762Z,57.40
2018-12-19T07:21:47.919Z,57.40
2018-12-19T07:24:18.847Z,57.60
2018-12-19T07:26:49.630Z,57.80
2018-12-19T07:29:20.351Z,57.60
2018-12-19T07:31:51.160Z,57.40
2018-12-19T07:34:22.025Z,57.90
2018-12-19T07:36:52.737Z,58.10
2018-12-19T07:39:23.602Z,58.10
2018-12-19T07:41:55.801Z,58.20
2018-12-19T07:44:27.103Z,58.30
2018-12-19T07:46:57.818Z,58.20
2018-12-19T07:49:28.675Z,58.30
2018-12-19T07:52:00.333Z,58.30
2018-12-19T07:54:31.217Z,58.40
2018-12-19T07:57:02.292Z,58.40
2018-12-19T07:59:33.108Z,58.40
2018-12-19T08:02:03.859Z,58.40
2018-12-19T08:04:35.256Z,57.50
2018-12-19T08:07:06.187Z,57.40
2018-12-19T08:09:37.004Z,57.40
2018-12-19T08:12:07.741Z,57.50
2018-12-19T08:14:39.716Z,57.50
2018-12-19T08:17:11.006Z,57.30
2018-12-19T08:19:42.987Z,57.50
2018-12-19T08:22:14.635Z,57.50
2018-12-19T08:24:45.619Z,57.60
2018-12-19T08:27:16.391Z,57.60
2018-12-19T08:29:47.275Z,57.50
2018-12-19T08:32:17.984Z,57.50
2018-12-19T08:34:48.919Z,57.40
2018-12-19T08:37:19.814Z,58.00
2018-12-19T08:39:50.519Z,57.50
2018-12-19T08:42:21.328Z,57.40
2018-12-19T08:44:52.087Z,57.40
2018-12-19T08:47:22.907Z,58.00
2018-12-19T08:49:53.719Z,57.50
2018-12-19T08:52:24.383Z,57.30
2018-12-19T08:54:55.272Z,57.40
2018-12-19T08:57:25.981Z,57.30
2018-12-19T08:59:57.162Z,57.50
2018-12-19T09:02:29.774Z,57.60
2018-12-19T09:05:00.679Z,58.20
2018-12-19T09:07:31.413Z,57.60
2018-12-19T09:10:02.314Z,57.50
2018-12-19T09:12:33.191Z,57.50
2018-12-19T09:15:05.670Z,57.40
2018-12-19T09:17:36.725Z,57.50
2018-12-19T09:20:08.914Z,57.40
2018-12-19T09:22:39.825Z,57.40
2018-12-19T09:25:10.602Z,57.90
2018-12-19T09:27:41.822Z,57.20
2018-12-19T09:30:12.543Z,57.10
2018-12-19T09:32:43.526Z,57.60
2018-12-19T09:35:14.407Z,57.30
2018-12-19T09:37:45.172Z,57.10
2018-12-19T09:40:16.028Z,57.10
2018-12-19T09:42:46.835Z,57.20
2018-12-19T09:45:17.613Z,57.10
2018-12-19T09:47:48.641Z,57.20
2018-12-19T09:50:19.309Z,57.30
2018-12-19T09:52:50.299Z,57.30
2018-12-19T09:55:21.473Z,57.90
2018-12-19T09:57:52.645Z,57.40
2018-12-19T10:00:28.683Z,57.40
2018-12-19T10:02:59.567Z,57.40
2018-12-19T10:05:31.390Z,57.60
2018-12-19T10:08:02.340Z,57.60
2018-12-19T10:10:33.688Z,57.70
2018-12-19T10:13:04.824Z,57.70
2018-12-19T10:15:36.245Z,57.70
2018-12-19T10:18:07.086Z,57.70
2018-12-19T10:20:37.916Z,58.20
2018-12-19T10:23:09.055Z,57.80
2018-12-19T10:25:40.087Z,57.90
2018-12-19T10:28:10.851Z,58.90
2018-12-19T10:30:46.880Z,59.70
2018-12-19T10:33:18.053Z,60.80
2018-12-19T10:35:48.847Z,61.30
2018-12-19T10:38:20.666Z,60.50
2018-12-19T10:40:51.522Z,60.10
2018-12-19T10:43:22.862Z,59.70
2018-12-19T10:45:53.783Z,59.40
2018-12-19T10:48:26.257Z,59.20
2018-12-19T10:50:57.116Z,59.10
2018-12-19T10:53:28.133Z,58.60
2018-12-19T10:55:59.287Z,57.60
2018-12-19T10:58:30.595Z,57.50
2018-12-19T11:01:01.791Z,57.10
2018-12-19T11:03:32.677Z,56.60
2018-12-19T11:06:03.466Z,55.80
2018-12-19T11:08:34.346Z,54.00
2018-12-19T11:11:05.919Z,53.60
2018-12-19T11:13:37.329Z,52.60
2018-12-19T11:16:08.412Z,51.30
2018-12-19T11:18:39.739Z,50.70
2018-12-19T11:21:10.462Z,50.10
2018-12-19T11:23:41.235Z,49.80
2018-12-19T11:26:11.941Z,49.30
2018-12-19T11:28:42.745Z,49.10
2018-12-19T11:31:13.987Z,49.10
2018-12-19T11:33:44.961Z,49.50
2018-12-19T11:36:15.780Z,49.70
2018-12-19T11:38:46.590Z,49.70
2018-12-19T11:41:17.390Z,49.80
2018-12-19T11:43:49.716Z,50.10
2018-12-19T11:46:20.695Z,50.30
2018-12-19T11:48:51.529Z,50.40
2018-12-19T11:51:22.420Z,50.60
2018-12-19T11:53:53.477Z,50.80
2018-12-19T11:56:24.418Z,51.10
2018-12-19T11:58:55.207Z,51.00
2018-12-19T12:01:25.988Z,51.10
2018-12-19T12:03:56.941Z,51.30
2018-12-19T12:06:27.972Z,51.40
2018-12-19T12:08:58.696Z,51.30
2018-12-19T12:11:29.422Z,51.30
2018-12-19T12:14:00.175Z,51.40
2018-12-19T12:16:31.075Z,51.60
2018-12-19T12:19:01.959Z,51.60
2018-12-19T12:21:32.866Z,51.90
2018-12-19T12:24:05.016Z,52.00
2018-12-19T12:26:36.113Z,52.20
2018-12-19T12:29:06.880Z,52.30
2018-12-19T12:31:37.617Z,52.50
2018-12-19T12:34:08.362Z,52.60
2018-12-19T12:36:39.136Z,52.40
2018-12-19T12:39:10.218Z,52.50
2018-12-19T12:41:41.271Z,52.70
2018-12-19T12:44:12.014Z,52.70
2018-12-19T12:46:42.903Z,52.80
2018-12-19T12:49:13.623Z,52.70
2018-12-19T12:51:45.782Z,52.80
2018-12-19T12:54:17.262Z,52.80
2018-12-19T12:56:48.207Z,53.10
2018-12-19T12:59:19.256Z,53.20
2018-12-19T13:01:50.078Z,52.70
2018-12-19T13:04:21.251Z,52.70
2018-12-19T13:06:52.293Z,52.80
2018-12-19T13:09:23.370Z,52.90
2018-12-19T13:11:58.763Z,52.80
2018-12-19T13:14:27.389Z,52.90
2018-12-19T13:16:58.284Z,52.90
2018-12-19T13:19:29.103Z,54.50
2018-12-19T13:22:00.069Z,53.00
2018-12-19T13:24:31.112Z,53.00
2018-12-19T13:27:02.325Z,53.10
2018-12-19T13:29:33.355Z,53.00
2018-12-19T13:32:04.992Z,53.00
2018-12-19T13:34:35.875Z,53.10
2018-12-19T13:37:06.972Z,53.00
2018-12-19T13:39:37.808Z,53.30
2018-12-19T13:42:08.848Z,53.20
2018-12-19T13:44:39.693Z,53.30
2018-12-19T13:47:10.477Z,53.10
2018-12-19T13:49:41.148Z,53.00
2018-12-19T13:52:12.411Z,53.20
2018-12-19T13:54:43.558Z,53.00
2018-12-19T13:57:14.392Z,53.00
2018-12-19T13:59:45.248Z,53.20
2018-12-19T14:02:16.195Z,53.10
2018-12-19T14:04:47.789Z,53.00
2018-12-19T14:07:18.833Z,53.00
2018-12-19T14:09:50.263Z,53.00
2018-12-19T14:12:21.205Z,53.00
2018-12-19T14:14:51.991Z,52.80
2018-12-19T14:17:24.049Z,52.80
2018-12-19T14:19:56.432Z,52.60
2018-12-19T14:22:28.163Z,52.60
2018-12-19T14:24:59.088Z,52.50
2018-12-19T14:27:30.039Z,52.50
2018-12-19T14:30:00.793Z,52.50
2018-12-19T14:32:32.065Z,52.40
2018-12-19T14:35:02.764Z,52.30
2018-12-19T14:37:33.884Z,52.30
2018-12-19T14:40:05.739Z,52.20
2018-12-19T14:42:36.629Z,52.30
2018-12-19T14:45:10.763Z,52.50
2018-12-19T14:47:41.677Z,52.40
2018-12-19T14:50:12.650Z,52.40
2018-12-19T14:52:43.403Z,52.50
2018-12-19T14:55:14.445Z,52.30
2018-12-19T14:57:45.151Z,51.80
2018-12-19T15:00:16.110Z,52.50
2018-12-19T15:02:46.886Z,52.40
2018-12-19T15:05:18.328Z,52.50
2018-12-19T15:07:50.309Z,52.40
2018-12-19T15:10:21.224Z,52.30
2018-12-19T15:12:51.925Z,52.30
2018-12-19T15:15:23.684Z,52.30
2018-12-19T15:17:55.686Z,52.00
2018-12-19T15:20:27.764Z,52.10
2018-12-19T15:22:58.824Z,52.30
2018-12-19T15:25:29.624Z,52.20
2018-12-19T15:28:01.788Z,52.20
2018-12-19T15:30:32.880Z,52.40
2018-12-19T15:33:03.991Z,52.20
2018-12-19T15:35:34.722Z,52.30
2018-12-19T15:38:06.895Z,52.30
2018-12-19T15:40:37.865Z,52.00
2018-12-19T15:43:08.690Z,52.10
2018-12-19T15:45:39.656Z,52.20
2018-12-19T15:48:10.476Z,52.20
2018-12-19T15:50:41.197Z,52.00
2018-12-19T15:53:12.325Z,52.10
2018-12-19T15:55:43.100Z,52.10
2018-12-19T15:58:14.043Z,52.20
2018-12-19T16:00:45.160Z,52.10
2018-12-19T16:03:15.999Z,52.20
2018-12-19T16:05:46.852Z,52.20
2018-12-19T16:08:17.621Z,52.20
2018-12-19T16:10:48.392Z,52.10
2018-12-19T16:13:19.279Z,52.10
2018-12-19T16:15:50.076Z,52.40
2018-12-19T16:18:20.925Z,52.30
2018-12-19T16:20:52.195Z,52.40
2018-12-19T16:23:22.967Z,52.40
2018-12-19T16:25:53.915Z,52.40
2018-12-19T16:28:25.987Z,52.50
2018-12-19T16:30:56.731Z,52.50
2018-12-19T16:33:27.585Z,52.40
2018-12-19T16:35:58.268Z,53.30
2018-12-19T16:38:29.097Z,52.50
2018-12-19T16:40:59.952Z,52.60
2018-12-19T16:43:31.295Z,52.60
2018-12-19T16:46:02.533Z,52.70
2018-12-19T16:48:33.336Z,52.60
2018-12-19T16:51:04.130Z,52.70
2018-12-19T16:53:35.055Z,52.70
2018-12-19T16:56:05.899Z,52.80
2018-12-19T16:58:37.703Z,52.80
2018-12-19T17:01:09.299Z,52.90
2018-12-19T17:03:40.146Z,52.90
2018-12-19T17:06:12.047Z,52.90
2018-12-19T17:08:43.159Z,53.00
2018-12-19T17:11:14.030Z,53.00
2018-12-19T17:13:45.117Z,53.00
2018-12-19T17:16:16.059Z,52.90
2018-12-19T17:18:46.889Z,53.10
2018-12-19T17:21:17.598Z,53.20
2018-12-19T17:23:48.491Z,53.10
2018-12-19T17:26:19.162Z,53.30
2018-12-19T17:28:50.307Z,53.10
2018-12-19T17:31:21.150Z,53.20
2018-12-19T17:33:52.363Z,53.20
2018-12-19T17:36:23.240Z,53.30
2018-12-19T17:38:54.082Z,53.10
2018-12-19T17:41:24.714Z,53.20
2018-12-19T17:43:55.419Z,53.20
2018-12-19T17:46:26.416Z,53.30
2018-12-19T17:48:58.797Z,53.30
2018-12-19T17:51:29.599Z,53.20
2018-12-19T17:54:01.663Z,53.30
2018-12-19T17:56:32.637Z,53.30
2018-12-19T17:59:03.517Z,53.30
2018-12-19T18:01:35.183Z,53.40
2018-12-19T18:04:06.068Z,53.40
2018-12-19T18:06:36.878Z,53.50
2018-12-19T18:09:08.810Z,53.40
2018-12-19T18:11:39.529Z,54.00
2018-12-19T18:14:10.918Z,53.40
2018-12-19T18:16:41.723Z,53.40
2018-12-19T18:19:12.633Z,53.50
2018-12-19T18:21:44.137Z,53.50
2018-12-19T18:24:15.090Z,53.20
2018-12-19T18:26:46.350Z,53.50
2018-12-19T18:29:17.269Z,53.30
2018-12-19T18:31:48.387Z,53.50
2018-12-19T18:34:19.073Z,53.50
2018-12-19T18:36:49.833Z,53.40
2018-12-19T18:39:26.068Z,53.50
2018-12-19T18:41:53.921Z,53.50
2018-12-19T18:44:25.241Z,53.50
2018-12-19T18:46:55.909Z,53.40
2018-12-19T18:49:26.887Z,53.50
2018-12-19T18:51:57.789Z,53.70
2018-12-19T18:54:28.996Z,53.60
2018-12-19T18:57:00.165Z,53.60
2018-12-19T18:59:32.750Z,53.60
2018-12-19T19:02:04.439Z,53.70
2018-12-19T19:04:36.094Z,53.70
2018-12-19T19:07:06.945Z,53.70
2018-12-19T19:09:38.018Z,53.80
2018-12-19T19:12:08.731Z,53.80
2018-12-19T19:14:39.455Z,53.80
2018-12-19T19:17:10.138Z,54.00
2018-12-19T19:19:40.806Z,53.90
2018-12-19T19:22:11.504Z,54.60
2018-12-19T19:24:42.256Z,54.00
2018-12-19T19:27:13.039Z,54.00
2018-12-19T19:29:43.938Z,54.10
2018-12-19T19:32:15.440Z,54.00
2018-12-19T19:34:46.677Z,53.90
2018-12-19T19:37:17.482Z,53.90
2018-12-19T19:39:49.887Z,53.90
2018-12-19T19:42:21.816Z,53.80
2018-12-19T19:44:53.106Z,53.80
2018-12-19T19:47:24.301Z,53.70
2018-12-19T19:49:55.567Z,53.80
2018-12-19T19:52:26.622Z,53.80
2018-12-19T19:54:57.483Z,53.90
2018-12-19T19:57:28.335Z,53.80
2018-12-19T20:00:00.845Z,53.80
2018-12-19T20:02:32.887Z,53.80
2018-12-19T20:05:04.588Z,54.00
2018-12-19T20:07:36.201Z,53.90
2018-12-19T20:10:07.942Z,54.00
2018-12-19T20:12:38.717Z,54.10
2018-12-19T20:15:10.289Z,54.20
2018-12-19T20:17:41.240Z,54.30
2018-12-19T20:20:12.572Z,54.20
2018-12-19T20:22:44.079Z,54.30
2018-12-19T20:25:15.169Z,54.30
2018-12-19T20:27:46.099Z,54.40
2018-12-19T20:30:17.271Z,54.50
2018-12-19T20:32:49.076Z,54.60
2018-12-19T20:35:20.336Z,54.60
2018-12-19T20:37:51.304Z,54.60
2018-12-19T20:40:22.152Z,54.50
2018-12-19T20:42:52.977Z,54.60
2018-12-19T20:45:23.906Z,54.70
2018-12-19T20:47:55.492Z,54.80
2018-12-19T20:50:26.169Z,54.80
2018-12-19T20:52:57.542Z,54.80
2018-12-19T20:55:28.945Z,54.80
2018-12-19T20:58:02.908Z,54.80
2018-12-19T21:00:33.886Z,54.80
2018-12-19T21:03:04.807Z,55.00
2018-12-19T21:05:36.349Z,55.10
2018-12-19T21:08:07.139Z,55.20
2018-12-19T21:10:37.861Z,55.30
2018-12-19T21:13:09.210Z,55.50
2018-12-19T21:15:39.962Z,55.60
2018-12-19T21:18:15.933Z,55.60
2018-12-19T21:20:48.052Z,55.60
2018-12-19T21:23:19.406Z,55.60
2018-12-19T21:25:50.608Z,55.60
2018-12-19T21:28:22.632Z,56.30
2018-12-19T21:30:53.396Z,55.20
2018-12-19T21:33:24.314Z,55.70
2018-12-19T21:35:55.304Z,55.70
2018-12-19T21:38:28.330Z,55.70
2018-12-19T21:41:00.307Z,55.80
2018-12-19T21:43:31.195Z,55.80
2018-12-19T21:46:03.799Z,55.80
2018-12-19T21:48:35.087Z,55.90
2018-12-19T21:51:06.191Z,56.00
2018-12-19T21:53:37.932Z,55.90
2018-12-19T21:56:09.208Z,55.90
2018-12-19T21:58:40.566Z,55.90
2018-12-19T22:01:11.746Z,55.90
2018-12-19T22:03:42.970Z,56.50
2018-12-19T22:06:13.845Z,55.80
2018-12-19T22:08:45.016Z,55.80
2018-12-19T22:11:16.723Z,56.00
2018-12-19T22:13:47.900Z,56.00
2018-12-19T22:16:23.995Z,56.00
2018-12-19T22:18:58.417Z,56.10
2018-12-19T22:21:29.317Z,56.30
2018-12-19T22:24:00.368Z,56.30
2018-12-19T22:26:31.303Z,56.40
2018-12-19T22:29:02.024Z,56.50
2018-12-19T22:31:32.861Z,56.60
2018-12-19T22:34:04.968Z,57.00
2018-12-19T22:36:35.900Z,56.70
2018-12-19T22:39:13.932Z,56.70
2018-12-19T22:41:44.907Z,56.80
2018-12-19T22:44:15.808Z,56.70
2018-12-19T22:46:46.612Z,56.80
2018-12-19T22:49:17.936Z,56.70
2018-12-19T22:51:48.857Z,56.60
2018-12-19T22:54:19.987Z,56.50
2018-12-19T22:56:50.979Z,56.50
2018-12-19T22:59:21.925Z,56.40
2018-12-19T23:01:58.243Z,56.30
2018-12-19T23:04:29.552Z,56.40
2018-12-19T23:07:00.702Z,56.40
2018-12-19T23:09:31.686Z,56.50
2018-12-19T23:12:02.812Z,56.40
2018-12-19T23:14:35.086Z,56.50
2018-12-19T23:17:11.397Z,56.50
2018-12-19T23:19:43.387Z,56.50
2018-12-19T23:22:14.649Z,56.50
2018-12-19T23:24:45.482Z,56.60
2018-12-19T23:27:17.074Z,56.70
2018-12-19T23:29:47.784Z,56.60
2018-12-19T23:32:22.589Z,56.70
2018-12-19T23:34:53.284Z,56.70
2018-12-19T23:37:24.721Z,56.60
2018-12-19T23:39:55.865Z,56.70
2018-12-19T23:42:29.448Z,56.80
2018-12-19T23:45:01.184Z,56.70
2018-12-19T23:47:32.554Z,56.50
2018-12-19T23:50:03.648Z,56.80
2018-12-19T23:52:34.590Z,56.80
2018-12-19T23:55:06.794Z,56.70
2018-12-19T23:57:37.793Z,56.70
